Time;durP1;ratioP1;P1;durP2;ratioP2;P2;SDS_P1;SDS_P2;PMS_P1;PMS_P2;Temp;Humidity;BMP_temperature;BMP_pressure;BME280_temperature;BME280_humidity;BME280_pressure;Samples;Min_cycle;Max_cycle;Signal;HPM_P1;HPM_P2
2022/02/10 00:06:49;;;;;;;2.25;1.35;;;10.70;70.80;;;;;;5047072;28;20029;-86
2022/02/10 00:35:18;;;;;;;3.17;1.85;;;10.50;70.80;;;;;;5026785;28;20095;-83
2022/02/10 00:38:21;;;;;;;1.73;1.40;;;10.50;70.90;;;;;;5026720;28;20159;-85
2022/02/10 00:40:37;;;;;;;2.22;1.45;;;10.40;70.70;;;;;;5042669;28;20590;-82
2022/02/10 00:43:05;;;;;;;2.08;1.17;;;10.40;70.70;;;;;;5047474;28;20025;-82
2022/02/10 00:45:33;;;;;;;3.35;1.45;;;10.40;70.80;;;;;;5050545;28;20029;-82
2022/02/10 00:48:04;;;;;;;3.13;1.75;;;10.40;70.80;;;;;;5032605;28;20024;-82
2022/02/10 00:50:33;;;;;;;2.25;1.27;;;10.30;70.70;;;;;;5012760;28;20033;-81
2022/02/10 00:55:33;;;;;;;3.20;1.38;;;10.30;70.70;;;;;;5030576;28;20041;-83
2022/02/10 00:58:03;;;;;;;1.73;1.30;;;10.30;70.70;;;;;;5030545;28;20026;-83
2022/02/10 01:30:18;;;;;;;2.72;1.77;;;9.90;70.60;;;;;;5050634;28;20036;-85
2022/02/10 01:32:48;;;;;;;1.50;1.38;;;9.90;70.60;;;;;;5049807;28;20124;-85
2022/02/10 01:35:19;;;;;;;2.35;1.48;;;9.90;70.70;;;;;;5031597;28;20056;-85
2022/02/10 01:37:46;;;;;;;2.90;1.90;;;9.90;70.70;;;;;;5049819;28;20041;-85
2022/02/10 01:41:03;;;;;;;3.25;2.03;;;9.90;70.70;;;;;;5031858;28;20115;-88
2022/02/10 02:04:56;;;;;;;3.30;1.70;;;9.70;70.30;;;;;;5030393;28;20257;-88
2022/02/10 02:07:28;;;;;;;1.60;1.50;;;9.70;70.40;;;;;;5022001;28;20053;-87
2022/02/10 02:09:55;;;;;;;2.28;2.05;;;9.70;70.40;;;;;;5021531;28;20513;-83
2022/02/10 02:12:21;;;;;;;1.65;1.48;;;9.80;70.60;;;;;;5011388;28;20056;-82
2022/02/10 02:14:47;;;;;;;2.22;1.73;;;9.70;70.40;;;;;;5028781;28;20095;-83
2022/02/10 02:17:14;;;;;;;2.13;1.50;;;9.70;70.40;;;;;;5028815;28;20124;-83
2022/02/10 02:19:39;;;;;;;3.38;2.05;;;9.70;70.50;;;;;;5003265;28;20088;-81
2022/02/10 02:22:09;;;;;;;1.90;1.55;;;9.70;70.50;;;;;;5008690;28;20030;-83
2022/02/10 02:24:36;;;;;;;3.28;1.77;;;9.70;70.50;;;;;;4991489;28;20069;-84
2022/02/10 02:27:05;;;;;;;4.40;1.80;;;9.60;70.30;;;;;;5008955;28;20038;-84
2022/02/10 02:32:12;;;;;;;1.85;1.73;;;9.60;70.30;;;;;;5008776;28;20037;-84
2022/02/10 03:07:09;;;;;;;2.78;1.50;;;9.40;70.20;;;;;;5036365;28;20480;-84
2022/02/10 03:09:41;;;;;;;2.70;2.08;;;9.30;70.10;;;;;;5037575;28;20033;-84
2022/02/10 03:12:09;;;;;;;3.07;1.90;;;9.40;70.30;;;;;;5031057;28;20094;-84
2022/02/10 03:14:37;;;;;;;3.38;2.20;;;9.30;70.20;;;;;;5013783;28;20294;-85
2022/02/10 04:14:01;;;;;;;3.13;1.92;;;9.00;70.00;;;;;;5031090;28;20033;-81
2022/02/10 04:16:42;;;;;;;2.22;1.83;;;9.00;70.00;;;;;;5013011;28;20082;-81
2022/02/10 04:24:47;;;;;;;2.08;1.70;;;9.00;70.00;;;;;;5035418;28;20033;-83
2022/02/10 04:27:31;;;;;;;3.00;2.03;;;9.10;70.20;;;;;;5036866;28;20079;-84
2022/02/10 04:38:28;;;;;;;3.60;2.25;;;9.10;70.10;;;;;;5036144;28;20113;-83
2022/02/10 04:43:35;;;;;;;2.70;2.20;;;9.00;69.80;;;;;;5019934;28;20036;-83
2022/02/10 04:54:45;;;;;;;2.53;1.83;;;9.00;69.80;;;;;;5034003;28;20049;-82
2022/02/10 05:21:15;;;;;;;3.13;1.90;;;9.00;69.80;;;;;;5033329;28;20030;-81
2022/02/10 05:34:44;;;;;;;2.47;1.50;;;9.00;69.60;;;;;;5033087;28;20111;-80
2022/02/10 05:37:10;;;;;;;2.30;1.55;;;9.00;69.50;;;;;;5000353;28;20567;-82
2022/02/10 05:39:42;;;;;;;4.32;1.83;;;9.00;69.50;;;;;;5015195;28;20428;-82
2022/02/10 05:52:54;;;;;;;3.42;1.40;;;9.00;69.40;;;;;;5027681;28;20060;-83
2022/02/10 05:58:08;;;;;;;6.63;1.73;;;9.00;69.30;;;;;;5030610;28;20028;-82
2022/02/10 06:46:11;;;;;;;4.93;1.30;;;9.00;68.90;;;;;;5028520;28;20030;-82
2022/02/10 06:52:11;;;;;;;2.60;1.23;;;9.00;69.20;;;;;;5029471;28;20109;-84
2022/02/10 07:05:42;;;;;;;4.20;1.23;;;9.00;69.10;;;;;;5030339;28;20033;-81
2022/02/10 08:51:02;;;;;;;3.03;1.50;;;9.20;67.50;;;;;;5046830;28;20037;-81
2022/02/10 08:54:09;;;;;;;4.38;1.50;;;9.30;67.60;;;;;;5046227;28;20028;-81
2022/02/10 08:58:50;;;;;;;3.10;1.15;;;9.40;67.60;;;;;;5046372;28;20120;-82
2022/02/10 09:06:46;;;;;;;5.47;1.13;;;9.60;67.50;;;;;;5031912;28;20365;-79
2022/02/10 09:14:42;;;;;;;3.00;1.23;;;9.80;67.30;;;;;;5049661;28;20131;-80
2022/02/10 10:02:50;;;;;;;4.35;1.13;;;10.50;66.60;;;;;;5049365;28;20108;-82
2022/02/10 10:05:43;;;;;;;3.50;1.00;;;10.50;66.60;;;;;;5031518;28;20431;-81
2022/02/10 10:08:40;;;;;;;3.60;1.50;;;10.60;66.70;;;;;;5030451;28;20045;-80
2022/02/10 10:56:18;;;;;;;5.00;1.92;;;12.50;65.50;;;;;;5027292;28;20033;-85
2022/02/10 11:42:22;;;;;;;2.63;1.10;;;13.00;64.20;;;;;;5048017;28;20044;-80
2022/02/10 11:47:53;;;;;;;5.68;1.92;;;13.20;64.20;;;;;;5046096;28;20063;-76
2022/02/10 12:38:56;;;;;;;13.05;3.03;;;13.80;63.40;;;;;;5027421;28;20071;-78
2022/02/10 14:28:12;;;;;;;3.05;0.80;;;13.10;61.30;;;;;;5059513;28;20473;-95
2022/02/10 14:30:39;;;;;;;5.07;1.52;;;13.10;61.40;;;;;;5021275;28;20033;-95
2022/02/10 14:33:06;;;;;;;3.80;1.48;;;13.10;61.40;;;;;;5016542;28;20049;-94
2022/02/10 14:35:49;;;;;;;3.80;1.35;;;13.00;61.30;;;;;;5025578;28;20520;-96
2022/02/10 15:16:42;;;;;;;3.47;1.27;;;12.50;61.20;;;;;;5048095;28;20029;-80
2022/02/10 16:18:06;;;;;;;4.40;1.35;;;11.30;61.00;;;;;;5046777;28;20033;-83
2022/02/10 16:27:55;;;;;;;3.13;1.38;;;11.20;61.00;;;;;;5041324;28;20033;-82
2022/02/10 16:30:21;;;;;;;;;;;11.20;61.00;;;;;;5010413;28;20260;-80
2022/02/10 16:32:47;;;;;;;3.08;1.50;;;11.20;61.10;;;;;;5027752;28;20479;-82
2022/02/10 16:35:13;;;;;;;3.67;1.20;;;11.20;61.10;;;;;;5029713;28;20049;-81
2022/02/10 16:37:41;;;;;;;3.28;0.90;;;11.10;61.10;;;;;;5037781;28;20450;-81
2022/02/10 16:40:07;;;;;;;3.70;1.05;;;11.10;61.10;;;;;;5027991;28;20089;-82
2022/02/10 16:42:33;;;;;;;4.78;1.45;;;11.00;61.10;;;;;;5029531;28;20036;-82
2022/02/10 16:44:59;;;;;;;5.78;1.35;;;11.00;61.10;;;;;;5012474;28;20033;-83
2022/02/10 16:47:26;;;;;;;4.05;1.00;;;10.90;61.10;;;;;;5046816;28;20021;-83
2022/02/10 16:49:53;;;;;;;3.22;1.05;;;10.90;61.20;;;;;;5028246;28;20053;-83
2022/02/10 16:52:36;;;;;;;5.25;1.70;;;10.80;61.10;;;;;;5009873;28;20473;-83
2022/02/10 16:55:14;;;;;;;3.53;0.90;;;10.80;61.20;;;;;;5009214;28;20056;-84
2022/02/10 17:03:21;;;;;;;8.02;1.45;;;10.60;61.20;;;;;;5008769;28;20053;-84
2022/02/10 17:14:30;;;;;;;8.05;2.17;;;10.40;61.00;;;;;;5018850;28;20040;-82
2022/02/10 17:27:44;;;;;;;3.22;1.27;;;10.30;60.90;;;;;;5045773;28;20471;-78
2022/02/10 17:51:27;;;;;;;4.47;1.25;;;10.00;60.70;;;;;;5012253;28;20480;-83
2022/02/10 17:53:56;;;;;;;3.53;1.30;;;9.90;60.80;;;;;;5012071;28;20041;-84
2022/02/10 17:56:23;;;;;;;11.38;2.35;;;9.90;60.80;;;;;;5029901;28;20029;-83
2022/02/10 17:58:49;;;;;;;6.03;1.20;;;9.80;60.70;;;;;;5029553;28;20053;-83
2022/02/10 18:01:16;;;;;;;5.60;1.33;;;9.80;60.70;;;;;;5030494;28;20034;-84
2022/02/10 18:03:43;;;;;;;6.00;1.38;;;9.80;60.80;;;;;;5029361;28;20025;-83
2022/02/10 18:12:41;;;;;;;4.38;1.27;;;9.70;60.80;;;;;;5031051;28;20406;-84
2022/02/10 18:14:22;;;;;;;2.97;1.00;;;9.70;60.80;;;;;;5035824;28;20049;-81
2022/02/10 18:16:56;;;;;;;4.60;1.00;;;9.70;60.80;;;;;;5048816;28;20025;-84
2022/02/10 18:19:30;;;;;;;4.28;1.20;;;9.60;60.70;;;;;;5022081;28;20123;-80
2022/02/10 19:02:31;;;;;;;9.05;2.63;;;11.10;66.00;;;;;;5031052;28;20030;-83
2022/02/10 19:09:49;;;;;;;6.97;1.52;;;10.90;65.70;;;;;;5031001;28;20124;-87
2022/02/10 19:12:25;;;;;;;5.45;1.42;;;10.90;65.80;;;;;;5031611;28;20029;-82
2022/02/10 19:14:57;;;;;;;6.57;1.50;;;10.80;65.70;;;;;;5036160;28;20033;-80
2022/02/10 19:17:25;;;;;;;6.93;1.43;;;10.70;65.70;;;;;;5024971;28;20070;-77
2022/02/10 19:19:52;;;;;;;3.47;1.73;;;10.70;66.20;;;;;;5035095;28;20333;-85
2022/02/10 19:22:19;;;;;;;7.78;1.48;;;10.90;66.90;;;;;;5051501;28;20031;-81
2022/02/10 19:24:45;;;;;;;5.50;1.83;;;11.00;66.90;;;;;;5047458;28;20048;-80
2022/02/10 19:27:13;;;;;;;5.53;1.70;;;11.20;67.00;;;;;;5043684;28;20441;-78
2022/02/10 19:29:40;;;;;;;7.68;1.60;;;11.20;66.70;;;;;;5042135;28;20029;-79
2022/02/10 19:32:06;;;;;;;5.05;1.75;;;11.20;66.50;;;;;;5032006;28;20032;-80
2022/02/10 19:34:35;;;;;;;6.07;1.73;;;11.10;66.40;;;;;;5015162;28;20071;-81
2022/02/10 19:37:02;;;;;;;5.70;1.83;;;11.10;66.40;;;;;;5033383;28;20441;-82
2022/02/10 19:39:28;;;;;;;5.22;1.50;;;11.00;66.30;;;;;;5039040;28;20032;-81
2022/02/10 19:41:55;;;;;;;5.05;1.38;;;10.90;66.20;;;;;;5036410;28;20025;-82
2022/02/10 19:44:21;;;;;;;6.97;2.30;;;10.80;66.20;;;;;;5052092;28;20025;-80
2022/02/10 19:46:47;;;;;;;6.07;1.58;;;10.70;66.20;;;;;;5032004;28;20108;-79
2022/02/10 19:49:21;;;;;;;4.35;2.00;;;10.70;66.30;;;;;;5026965;28;20025;-78
2022/02/10 19:51:48;;;;;;;4.85;2.08;;;10.50;66.10;;;;;;5019346;28;20127;-81
2022/02/10 19:54:22;;;;;;;4.00;1.50;;;10.50;66.20;;;;;;5040270;28;20049;-81
2022/02/10 19:56:48;;;;;;;4.30;1.60;;;10.40;66.20;;;;;;5032627;28;20414;-81
2022/02/10 19:59:18;;;;;;;6.28;2.45;;;10.30;66.20;;;;;;5025975;28;20029;-81
2022/02/10 20:01:45;;;;;;;6.80;1.98;;;10.30;66.30;;;;;;5042205;28;20021;-84
2022/02/10 20:04:12;;;;;;;6.22;2.38;;;10.20;66.20;;;;;;5043890;28;20492;-86
2022/02/10 20:06:39;;;;;;;5.05;2.42;;;10.10;66.10;;;;;;5047981;28;20040;-82
2022/02/10 20:09:05;;;;;;;10.80;2.78;;;10.10;66.20;;;;;;5029327;28;20168;-83
2022/02/10 20:11:31;;;;;;;3.95;1.80;;;10.00;66.10;;;;;;5044486;28;20787;-85
2022/02/10 20:13:57;;;;;;;7.80;2.15;;;10.00;66.00;;;;;;5029659;28;20034;-81
2022/02/10 20:16:23;;;;;;;4.10;2.17;;;9.90;65.80;;;;;;5011718;28;20053;-81
2022/02/10 20:18:49;;;;;;;7.00;2.38;;;9.90;65.80;;;;;;5026611;28;20022;-81
2022/02/10 20:21:16;;;;;;;7.57;2.75;;;9.90;66.30;;;;;;5029021;28;20033;-84
2022/02/10 20:23:42;;;;;;;6.80;1.98;;;9.80;65.70;;;;;;5028877;28;20036;-81
2022/02/10 20:26:10;;;;;;;4.57;2.40;;;9.80;65.70;;;;;;5014972;28;20018;-80
2022/02/10 20:28:36;;;;;;;6.43;2.40;;;9.70;65.70;;;;;;5031280;28;20080;-80
2022/02/10 20:31:03;;;;;;;5.63;2.80;;;9.70;65.80;;;;;;5026698;28;20030;-80
2022/02/10 20:33:31;;;;;;;9.35;2.75;;;9.70;65.80;;;;;;5038100;28;20388;-83
2022/02/10 20:35:59;;;;;;;8.85;2.60;;;9.60;65.50;;;;;;5029844;28;20572;-79
2022/02/10 20:38:27;;;;;;;7.70;2.40;;;9.50;65.40;;;;;;5047478;28;20462;-77
2022/02/10 20:41:01;;;;;;;5.70;2.47;;;9.40;65.30;;;;;;5030019;28;20128;-78
2022/02/10 20:43:28;;;;;;;6.05;2.33;;;9.30;65.20;;;;;;5048934;28;20051;-79
2022/02/10 20:46:03;;;;;;;7.13;2.58;;;9.30;65.30;;;;;;5048919;28;20032;-80
2022/02/10 20:48:32;;;;;;;6.40;2.92;;;9.20;65.20;;;;;;5046922;28;20029;-80
2022/02/10 20:50:59;;;;;;;10.50;3.03;;;9.10;65.20;;;;;;5046861;28;20035;-78
2022/02/10 20:53:28;;;;;;;8.00;2.72;;;9.00;65.00;;;;;;5047439;28;20106;-81
2022/02/10 20:55:56;;;;;;;7.10;3.13;;;8.90;65.00;;;;;;5047156;28;20037;-78
2022/02/10 20:58:25;;;;;;;5.28;2.38;;;8.90;65.00;;;;;;5047991;28;20087;-81
2022/02/10 21:00:53;;;;;;;7.95;2.67;;;8.80;64.90;;;;;;5031177;28;20088;-82
2022/02/10 21:03:23;;;;;;;8.18;4.72;;;8.70;64.80;;;;;;5050681;28;20037;-80
2022/02/10 21:05:51;;;;;;;7.28;3.22;;;8.70;64.80;;;;;;5050837;28;20025;-83
2022/02/10 21:09:04;;;;;;;7.10;2.88;;;8.60;64.60;;;;;;5050994;28;20123;-83
2022/02/10 21:11:06;;;;;;;7.45;3.00;;;8.50;65.10;;;;;;5042316;28;20523;-81
2022/02/10 21:13:38;;;;;;;6.57;2.78;;;8.50;64.60;;;;;;5051072;28;20029;-79
2022/02/10 21:16:06;;;;;;;4.75;2.95;;;8.40;64.40;;;;;;5031172;28;20057;-82
2022/02/10 21:18:34;;;;;;;5.53;2.80;;;8.30;64.30;;;;;;5037458;28;20037;-83
2022/02/10 21:21:05;;;;;;;6.53;3.05;;;8.30;64.40;;;;;;5040716;28;20448;-82
2022/02/10 21:23:36;;;;;;;6.07;3.40;;;8.20;64.20;;;;;;5038439;28;20021;-82
2022/02/10 21:26:03;;;;;;;5.78;3.13;;;8.20;64.30;;;;;;5020080;28;20029;-81
2022/02/10 21:28:32;;;;;;;6.10;2.78;;;8.10;64.20;;;;;;5050269;28;20535;-80
2022/02/10 21:31:02;;;;;;;7.15;3.10;;;8.00;64.00;;;;;;5049781;28;20029;-80
2022/02/10 21:36:42;;;;;;;7.18;3.78;;;8.00;64.10;;;;;;5049620;28;20068;-80
2022/02/10 21:39:02;;;;;;;5.28;3.72;;;7.90;64.00;;;;;;5048937;28;20079;-79
2022/02/10 22:00:54;;;;;;;6.90;3.28;;;7.50;63.50;;;;;;5051453;28;20143;-82
2022/02/10 22:10:31;;;;;;;9.57;4.35;;;7.40;63.40;;;;;;5048879;28;20025;-80
2022/02/10 22:19:04;;;;;;;5.95;3.00;;;7.20;63.20;;;;;;5053889;28;20441;-81
2022/02/10 22:21:27;;;;;;;6.28;2.90;;;7.20;63.20;;;;;;5048684;28;20179;-80
2022/02/10 22:23:52;;;;;;;;;;;7.20;63.20;;;;;;5040716;28;20037;-80
2022/02/10 22:26:25;;;;;;;9.45;3.33;;;7.10;63.10;;;;;;5019431;28;19920;-80
2022/02/10 22:29:09;;;;;;;5.55;2.78;;;7.10;63.10;;;;;;5013407;28;20108;-79
2022/02/10 22:36:40;;;;;;;9.35;3.72;;;7.00;63.00;;;;;;5028761;28;20037;-81
2022/02/10 22:39:06;;;;;;;8.18;2.88;;;7.00;63.00;;;;;;5038641;28;20589;-81
2022/02/10 22:41:33;;;;;;;7.28;3.47;;;7.00;63.00;;;;;;5049539;28;20029;-82
2022/02/10 22:44:00;;;;;;;9.35;3.80;;;6.90;62.80;;;;;;5049329;28;20461;-83
2022/02/10 22:46:27;;;;;;;6.38;2.90;;;6.90;62.80;;;;;;5049073;28;20035;-81
2022/02/10 22:48:53;;;;;;;6.70;3.65;;;6.90;62.90;;;;;;5039729;28;20040;-81
2022/02/10 22:51:26;;;;;;;6.25;3.47;;;6.90;62.90;;;;;;5028966;28;20029;-81
2022/02/10 22:53:52;;;;;;;;;;;6.90;62.90;;;;;;5029549;28;20525;-82
2022/02/10 22:56:20;;;;;;;5.15;2.78;;;6.80;62.70;;;;;;5029722;28;20024;-82
2022/02/10 22:58:46;;;;;;;6.55;3.00;;;6.80;62.70;;;;;;5039242;28;20029;-81
2022/02/10 23:01:15;;;;;;;9.18;2.72;;;6.70;62.50;;;;;;5050701;28;20025;-81
2022/02/10 23:03:42;;;;;;;6.68;3.00;;;6.70;62.50;;;;;;5032283;28;20035;-81
2022/02/10 23:06:10;;;;;;;7.80;3.08;;;6.70;62.60;;;;;;5049595;28;20075;-81
2022/02/10 23:08:37;;;;;;;8.73;3.80;;;6.70;62.60;;;;;;5030889;28;20077;-80
2022/02/10 23:11:04;;;;;;;6.07;2.85;;;6.70;62.60;;;;;;5014015;28;20033;-80
2022/02/10 23:13:33;;;;;;;7.38;2.50;;;6.60;62.40;;;;;;5048367;28;20025;-81
2022/02/10 23:16:02;;;;;;;7.10;3.42;;;6.60;62.50;;;;;;5030416;28;20045;-81
2022/02/10 23:18:30;;;;;;;10.15;3.60;;;6.60;62.50;;;;;;5048106;28;20029;-81
2022/02/10 23:20:59;;;;;;;7.40;3.50;;;6.60;62.50;;;;;;5047782;28;20037;-80
2022/02/10 23:23:27;;;;;;;7.55;3.63;;;6.50;62.30;;;;;;5047663;28;20108;-81
2022/02/10 23:25:56;;;;;;;7.15;3.00;;;6.50;62.40;;;;;;5030290;28;20095;-81
2022/02/10 23:28:32;;;;;;;6.28;3.60;;;6.50;62.90;;;;;;5030678;28;20037;-81
2022/02/10 23:30:59;;;;;;;8.07;3.40;;;6.40;62.20;;;;;;5030057;28;20040;-81
2022/02/10 23:38:44;;;;;;;10.70;3.73;;;6.30;62.10;;;;;;5041924;28;20040;-81
2022/02/10 23:43:55;;;;;;;5.78;3.00;;;6.20;62.00;;;;;;5027511;28;20548;-81
2022/02/10 23:46:22;;;;;;;7.47;3.15;;;6.20;62.00;;;;;;5027638;28;20460;-82
2022/02/10 23:48:50;;;;;;;9.20;3.50;;;6.10;61.90;;;;;;5027669;28;20057;-83
2022/02/10 23:51:17;;;;;;;7.50;3.90;;;6.10;61.90;;;;;;5027597;28;20473;-81
2022/02/10 23:53:44;;;;;;;6.03;2.90;;;6.10;61.90;;;;;;5027685;28;20021;-82
2022/02/10 23:56:14;;;;;;;11.20;4.13;;;6.00;61.80;;;;;;5027783;28;20489;-82
2022/02/10 23:58:56;;;;;;;6.70;3.30;;;6.00;61.80;;;;;;5027580;28;20136;-82
